sensor_id;sensor_type;location;lat;lon;timestamp;P1;durP1;ratioP1;P2;durP2;ratioP2
9166;SDS011;4618;48.818;9.088;2022-10-15T00:00:34;3.43;;;0.30;;
9166;SDS011;4618;48.818;9.088;2022-10-15T00:03:00;0.40;;;0.40;;
9166;SDS011;4618;48.818;9.088;2022-10-15T00:05:26;0.93;;;0.40;;
9166;SDS011;4618;48.818;9.088;2022-10-15T00:07:52;2.00;;;0.40;;
9166;SDS011;4618;48.818;9.088;2022-10-15T00:10:18;5.50;;;0.63;;
9166;SDS011;4618;48.818;9.088;2022-10-15T00:12:44;0.77;;;0.50;;
9166;SDS011;4618;48.818;9.088;2022-10-15T00:15:10;4.80;;;0.73;;
9166;SDS011;4618;48.818;9.088;2022-10-15T00:17:36;0.30;;;0.30;;
9166;SDS011;4618;48.818;9.088;2022-10-15T00:20:06;0.30;;;0.30;;
9166;SDS011;4618;48.818;9.088;2022-10-15T00:22:33;0.13;;;0.13;;
9166;SDS011;4618;48.818;9.088;2022-10-15T00:24:59;1.70;;;0.20;;
9166;SDS011;4618;48.818;9.088;2022-10-15T00:27:26;0.20;;;0.20;;
9166;SDS011;4618;48.818;9.088;2022-10-15T00:29:52;1.10;;;0.40;;
9166;SDS011;4618;48.818;9.088;2022-10-15T00:32:17;1.10;;;0.20;;
9166;SDS011;4618;48.818;9.088;2022-10-15T00:34:43;0.63;;;0.30;;
9166;SDS011;4618;48.818;9.088;2022-10-15T00:37:08;1.20;;;0.20;;
9166;SDS011;4618;48.818;9.088;2022-10-15T00:39:35;0.97;;;0.40;;
9166;SDS011;4618;48.818;9.088;2022-10-15T00:42:00;0.27;;;0.23;;
9166;SDS011;4618;48.818;9.088;2022-10-15T00:47:13;0.47;;;0.30;;
9166;SDS011;4618;48.818;9.088;2022-10-15T00:55:07;0.30;;;0.30;;
9166;SDS011;4618;48.818;9.088;2022-10-15T00:57:42;0.20;;;0.10;;
9166;SDS011;4618;48.818;9.088;2022-10-15T01:00:12;1.10;;;0.20;;
9166;SDS011;4618;48.818;9.088;2022-10-15T01:02:41;0.30;;;0.13;;
9166;SDS011;4618;48.818;9.088;2022-10-15T01:05:08;1.20;;;0.23;;
9166;SDS011;4618;48.818;9.088;2022-10-15T01:07:36;0.10;;;0.10;;
9166;SDS011;4618;48.818;9.088;2022-10-15T01:10:02;0.83;;;0.20;;
9166;SDS011;4618;48.818;9.088;2022-10-15T01:15:38;0.40;;;0.20;;
9166;SDS011;4618;48.818;9.088;2022-10-15T01:18:17;0.60;;;0.20;;
9166;SDS011;4618;48.818;9.088;2022-10-15T01:23:40;0.20;;;0.20;;
9166;SDS011;4618;48.818;9.088;2022-10-15T01:31:59;1.23;;;0.20;;
9166;SDS011;4618;48.818;9.088;2022-10-15T01:37:59;0.80;;;0.20;;
9166;SDS011;4618;48.818;9.088;2022-10-15T01:43:12;0.33;;;0.20;;
9166;SDS011;4618;48.818;9.088;2022-10-15T01:45:43;0.10;;;0.10;;
9166;SDS011;4618;48.818;9.088;2022-10-15T01:48:13;0.37;;;0.10;;
9166;SDS011;4618;48.818;9.088;2022-10-15T01:50:42;0.10;;;0.10;;
9166;SDS011;4618;48.818;9.088;2022-10-15T01:53:12;0.20;;;0.20;;
9166;SDS011;4618;48.818;9.088;2022-10-15T01:55:41;1.37;;;0.30;;
9166;SDS011;4618;48.818;9.088;2022-10-15T01:58:09;0.40;;;0.20;;
9166;SDS011;4618;48.818;9.088;2022-10-15T02:00:37;0.20;;;0.20;;
9166;SDS011;4618;48.818;9.088;2022-10-15T02:03:06;0.83;;;0.20;;
9166;SDS011;4618;48.818;9.088;2022-10-15T02:05:33;0.30;;;0.30;;
9166;SDS011;4618;48.818;9.088;2022-10-15T02:08:25;0.40;;;0.40;;
9166;SDS011;4618;48.818;9.088;2022-10-15T02:11:10;0.27;;;0.27;;
9166;SDS011;4618;48.818;9.088;2022-10-15T02:16:27;0.40;;;0.20;;
9166;SDS011;4618;48.818;9.088;2022-10-15T02:24:16;0.47;;;0.20;;
9166;SDS011;4618;48.818;9.088;2022-10-15T02:26:53;0.23;;;0.20;;
9166;SDS011;4618;48.818;9.088;2022-10-15T02:29:22;0.33;;;0.20;;
9166;SDS011;4618;48.818;9.088;2022-10-15T02:31:51;0.30;;;0.20;;
9166;SDS011;4618;48.818;9.088;2022-10-15T02:34:24;1.93;;;0.20;;
9166;SDS011;4618;48.818;9.088;2022-10-15T02:36:53;0.60;;;0.30;;
9166;SDS011;4618;48.818;9.088;2022-10-15T02:39:22;0.20;;;0.20;;
9166;SDS011;4618;48.818;9.088;2022-10-15T02:41:49;0.30;;;0.20;;
9166;SDS011;4618;48.818;9.088;2022-10-15T02:44:16;1.53;;;0.37;;
9166;SDS011;4618;48.818;9.088;2022-10-15T02:46:42;1.40;;;0.23;;
9166;SDS011;4618;48.818;9.088;2022-10-15T02:49:07;0.97;;;0.30;;
9166;SDS011;4618;48.818;9.088;2022-10-15T02:51:33;0.30;;;0.30;;
9166;SDS011;4618;48.818;9.088;2022-10-15T02:54:00;0.57;;;0.30;;
9166;SDS011;4618;48.818;9.088;2022-10-15T02:56:28;1.43;;;0.30;;
9166;SDS011;4618;48.818;9.088;2022-10-15T02:58:54;0.53;;;0.30;;
9166;SDS011;4618;48.818;9.088;2022-10-15T03:01:20;0.23;;;0.20;;
9166;SDS011;4618;48.818;9.088;2022-10-15T03:03:45;1.07;;;0.53;;
9166;SDS011;4618;48.818;9.088;2022-10-15T03:06:11;1.13;;;0.23;;
9166;SDS011;4618;48.818;9.088;2022-10-15T03:08:37;0.63;;;0.30;;
9166;SDS011;4618;48.818;9.088;2022-10-15T03:11:03;3.37;;;0.20;;
9166;SDS011;4618;48.818;9.088;2022-10-15T03:13:29;0.30;;;0.30;;
9166;SDS011;4618;48.818;9.088;2022-10-15T03:15:54;1.40;;;0.13;;
9166;SDS011;4618;48.818;9.088;2022-10-15T03:18:21;0.50;;;0.20;;
9166;SDS011;4618;48.818;9.088;2022-10-15T03:20:56;1.03;;;0.10;;
9166;SDS011;4618;48.818;9.088;2022-10-15T03:23:22;0.20;;;0.13;;
9166;SDS011;4618;48.818;9.088;2022-10-15T03:25:47;0.27;;;0.10;;
9166;SDS011;4618;48.818;9.088;2022-10-15T03:28:13;0.10;;;0.10;;
9166;SDS011;4618;48.818;9.088;2022-10-15T03:30:39;0.90;;;0.10;;
9166;SDS011;4618;48.818;9.088;2022-10-15T03:33:04;1.70;;;0.10;;
9166;SDS011;4618;48.818;9.088;2022-10-15T03:35:30;1.23;;;0.10;;
9166;SDS011;4618;48.818;9.088;2022-10-15T03:37:55;1.50;;;0.20;;
9166;SDS011;4618;48.818;9.088;2022-10-15T03:40:21;1.13;;;0.23;;
9166;SDS011;4618;48.818;9.088;2022-10-15T03:42:50;0.10;;;0.10;;
9166;SDS011;4618;48.818;9.088;2022-10-15T03:45:17;0.93;;;0.20;;
9166;SDS011;4618;48.818;9.088;2022-10-15T03:47:43;0.33;;;0.10;;
9166;SDS011;4618;48.818;9.088;2022-10-15T03:50:09;0.10;;;0.10;;
9166;SDS011;4618;48.818;9.088;2022-10-15T03:52:35;0.10;;;0.10;;
9166;SDS011;4618;48.818;9.088;2022-10-15T03:55:01;0.30;;;0.10;;
9166;SDS011;4618;48.818;9.088;2022-10-15T03:57:27;0.27;;;0.10;;
9166;SDS011;4618;48.818;9.088;2022-10-15T03:59:53;0.50;;;0.10;;
9166;SDS011;4618;48.818;9.088;2022-10-15T04:02:18;0.10;;;0.10;;
9166;SDS011;4618;48.818;9.088;2022-10-15T04:04:44;0.10;;;0.10;;
9166;SDS011;4618;48.818;9.088;2022-10-15T04:07:10;0.50;;;0.10;;
9166;SDS011;4618;48.818;9.088;2022-10-15T04:09:36;0.40;;;0.10;;
9166;SDS011;4618;48.818;9.088;2022-10-15T04:12:01;0.20;;;0.17;;
9166;SDS011;4618;48.818;9.088;2022-10-15T04:14:27;0.37;;;0.10;;
9166;SDS011;4618;48.818;9.088;2022-10-15T04:16:54;2.43;;;0.10;;
9166;SDS011;4618;48.818;9.088;2022-10-15T04:19:20;1.30;;;0.20;;
9166;SDS011;4618;48.818;9.088;2022-10-15T04:21:45;0.83;;;0.20;;
9166;SDS011;4618;48.818;9.088;2022-10-15T04:24:11;0.10;;;0.10;;
9166;SDS011;4618;48.818;9.088;2022-10-15T04:26:36;0.03;;;0.03;;
9166;SDS011;4618;48.818;9.088;2022-10-15T04:29:02;0.07;;;0.07;;
9166;SDS011;4618;48.818;9.088;2022-10-15T04:31:28;0.10;;;0.10;;
9166;SDS011;4618;48.818;9.088;2022-10-15T04:33:54;0.50;;;0.10;;
9166;SDS011;4618;48.818;9.088;2022-10-15T04:36:19;0.10;;;0.10;;
9166;SDS011;4618;48.818;9.088;2022-10-15T04:38:45;0.67;;;0.10;;
9166;SDS011;4618;48.818;9.088;2022-10-15T04:41:10;0.30;;;0.10;;
9166;SDS011;4618;48.818;9.088;2022-10-15T04:43:36;0.87;;;0.10;;
9166;SDS011;4618;48.818;9.088;2022-10-15T04:46:04;1.33;;;0.10;;
9166;SDS011;4618;48.818;9.088;2022-10-15T04:48:31;4.30;;;0.10;;
9166;SDS011;4618;48.818;9.088;2022-10-15T04:51:09;0.10;;;0.10;;
9166;SDS011;4618;48.818;9.088;2022-10-15T04:53:36;0.10;;;0.10;;
9166;SDS011;4618;48.818;9.088;2022-10-15T04:56:07;0.63;;;0.20;;
9166;SDS011;4618;48.818;9.088;2022-10-15T04:58:36;1.23;;;0.10;;
9166;SDS011;4618;48.818;9.088;2022-10-15T05:01:06;1.50;;;0.10;;
9166;SDS011;4618;48.818;9.088;2022-10-15T05:03:36;0.97;;;0.10;;
9166;SDS011;4618;48.818;9.088;2022-10-15T05:06:06;0.63;;;0.10;;
9166;SDS011;4618;48.818;9.088;2022-10-15T05:08:34;0.50;;;0.20;;
9166;SDS011;4618;48.818;9.088;2022-10-15T05:11:01;0.30;;;0.20;;
9166;SDS011;4618;48.818;9.088;2022-10-15T05:13:32;1.70;;;0.30;;
9166;SDS011;4618;48.818;9.088;2022-10-15T05:16:08;1.33;;;0.30;;
9166;SDS011;4618;48.818;9.088;2022-10-15T05:18:35;1.30;;;0.30;;
9166;SDS011;4618;48.818;9.088;2022-10-15T05:21:01;1.20;;;0.20;;
9166;SDS011;4618;48.818;9.088;2022-10-15T05:23:27;0.97;;;0.20;;
9166;SDS011;4618;48.818;9.088;2022-10-15T05:25:52;0.20;;;0.20;;
9166;SDS011;4618;48.818;9.088;2022-10-15T05:28:18;0.20;;;0.20;;
9166;SDS011;4618;48.818;9.088;2022-10-15T05:30:43;0.40;;;0.23;;
9166;SDS011;4618;48.818;9.088;2022-10-15T05:33:09;0.13;;;0.10;;
9166;SDS011;4618;48.818;9.088;2022-10-15T05:35:35;0.77;;;0.20;;
9166;SDS011;4618;48.818;9.088;2022-10-15T05:38:01;2.43;;;0.10;;
9166;SDS011;4618;48.818;9.088;2022-10-15T05:40:28;1.80;;;0.20;;
9166;SDS011;4618;48.818;9.088;2022-10-15T05:42:54;0.10;;;0.10;;
9166;SDS011;4618;48.818;9.088;2022-10-15T05:45:20;1.03;;;0.20;;
9166;SDS011;4618;48.818;9.088;2022-10-15T05:47:46;2.53;;;0.30;;
9166;SDS011;4618;48.818;9.088;2022-10-15T05:50:11;1.00;;;0.20;;
9166;SDS011;4618;48.818;9.088;2022-10-15T05:52:37;0.30;;;0.30;;
9166;SDS011;4618;48.818;9.088;2022-10-15T05:55:03;1.13;;;0.30;;
9166;SDS011;4618;48.818;9.088;2022-10-15T05:57:28;1.80;;;0.20;;
9166;SDS011;4618;48.818;9.088;2022-10-15T05:59:54;1.03;;;0.30;;
9166;SDS011;4618;48.818;9.088;2022-10-15T06:02:19;1.07;;;0.20;;
9166;SDS011;4618;48.818;9.088;2022-10-15T06:04:46;0.20;;;0.20;;
9166;SDS011;4618;48.818;9.088;2022-10-15T06:07:12;1.30;;;0.20;;
9166;SDS011;4618;48.818;9.088;2022-10-15T06:09:38;0.67;;;0.20;;
9166;SDS011;4618;48.818;9.088;2022-10-15T06:12:03;0.33;;;0.10;;
9166;SDS011;4618;48.818;9.088;2022-10-15T06:14:29;2.53;;;0.23;;
9166;SDS011;4618;48.818;9.088;2022-10-15T06:16:55;0.27;;;0.10;;
9166;SDS011;4618;48.818;9.088;2022-10-15T06:19:20;0.50;;;0.10;;
9166;SDS011;4618;48.818;9.088;2022-10-15T06:21:46;1.47;;;0.30;;
9166;SDS011;4618;48.818;9.088;2022-10-15T06:24:12;0.20;;;0.20;;
9166;SDS011;4618;48.818;9.088;2022-10-15T06:26:37;0.83;;;0.20;;
9166;SDS011;4618;48.818;9.088;2022-10-15T06:29:03;1.53;;;0.20;;
9166;SDS011;4618;48.818;9.088;2022-10-15T06:31:28;0.97;;;0.20;;
9166;SDS011;4618;48.818;9.088;2022-10-15T06:33:55;1.90;;;0.30;;
9166;SDS011;4618;48.818;9.088;2022-10-15T06:36:21;1.90;;;0.30;;
9166;SDS011;4618;48.818;9.088;2022-10-15T06:38:48;1.20;;;0.50;;
9166;SDS011;4618;48.818;9.088;2022-10-15T06:41:14;0.40;;;0.40;;
9166;SDS011;4618;48.818;9.088;2022-10-15T06:43:40;1.03;;;0.50;;
9166;SDS011;4618;48.818;9.088;2022-10-15T06:46:06;1.50;;;0.30;;
9166;SDS011;4618;48.818;9.088;2022-10-15T06:48:32;1.37;;;0.40;;
9166;SDS011;4618;48.818;9.088;2022-10-15T06:50:58;1.73;;;0.40;;
9166;SDS011;4618;48.818;9.088;2022-10-15T06:53:25;0.30;;;0.30;;
9166;SDS011;4618;48.818;9.088;2022-10-15T06:55:54;0.80;;;0.50;;
9166;SDS011;4618;48.818;9.088;2022-10-15T06:58:21;0.93;;;0.40;;
9166;SDS011;4618;48.818;9.088;2022-10-15T07:00:47;4.60;;;0.60;;
9166;SDS011;4618;48.818;9.088;2022-10-15T07:03:12;0.40;;;0.40;;
9166;SDS011;4618;48.818;9.088;2022-10-15T07:05:38;0.43;;;0.43;;
9166;SDS011;4618;48.818;9.088;2022-10-15T07:08:04;1.50;;;0.60;;
9166;SDS011;4618;48.818;9.088;2022-10-15T07:10:29;1.43;;;0.70;;
9166;SDS011;4618;48.818;9.088;2022-10-15T07:12:57;2.97;;;0.70;;
9166;SDS011;4618;48.818;9.088;2022-10-15T07:15:24;0.43;;;0.40;;
9166;SDS011;4618;48.818;9.088;2022-10-15T07:17:50;6.13;;;0.30;;
9166;SDS011;4618;48.818;9.088;2022-10-15T07:20:31;0.37;;;0.30;;
9166;SDS011;4618;48.818;9.088;2022-10-15T07:22:57;0.37;;;0.37;;
9166;SDS011;4618;48.818;9.088;2022-10-15T07:25:24;1.80;;;0.40;;
9166;SDS011;4618;48.818;9.088;2022-10-15T07:27:50;0.60;;;0.37;;
9166;SDS011;4618;48.818;9.088;2022-10-15T07:30:16;0.30;;;0.30;;
9166;SDS011;4618;48.818;9.088;2022-10-15T07:32:42;0.50;;;0.30;;
9166;SDS011;4618;48.818;9.088;2022-10-15T07:35:07;1.00;;;0.50;;
9166;SDS011;4618;48.818;9.088;2022-10-15T07:37:33;1.87;;;0.60;;
9166;SDS011;4618;48.818;9.088;2022-10-15T07:39:59;0.73;;;0.60;;
9166;SDS011;4618;48.818;9.088;2022-10-15T07:42:25;0.30;;;0.30;;
9166;SDS011;4618;48.818;9.088;2022-10-15T07:44:51;0.37;;;0.37;;
9166;SDS011;4618;48.818;9.088;2022-10-15T07:47:16;6.23;;;0.60;;
9166;SDS011;4618;48.818;9.088;2022-10-15T07:49:42;2.67;;;0.50;;
9166;SDS011;4618;48.818;9.088;2022-10-15T07:52:08;1.03;;;0.37;;
9166;SDS011;4618;48.818;9.088;2022-10-15T07:54:34;0.30;;;0.30;;
9166;SDS011;4618;48.818;9.088;2022-10-15T07:57:00;3.27;;;0.30;;
9166;SDS011;4618;48.818;9.088;2022-10-15T07:59:25;1.10;;;0.40;;
9166;SDS011;4618;48.818;9.088;2022-10-15T08:01:51;0.67;;;0.40;;
9166;SDS011;4618;48.818;9.088;2022-10-15T08:04:17;2.10;;;0.40;;
9166;SDS011;4618;48.818;9.088;2022-10-15T08:06:44;0.57;;;0.57;;
9166;SDS011;4618;48.818;9.088;2022-10-15T08:09:10;1.03;;;0.70;;
9166;SDS011;4618;48.818;9.088;2022-10-15T08:11:35;2.67;;;0.53;;
9166;SDS011;4618;48.818;9.088;2022-10-15T08:14:01;0.80;;;0.40;;
9166;SDS011;4618;48.818;9.088;2022-10-15T08:16:27;2.03;;;0.50;;
9166;SDS011;4618;48.818;9.088;2022-10-15T08:18:53;1.43;;;0.70;;
9166;SDS011;4618;48.818;9.088;2022-10-15T08:21:18;2.20;;;0.60;;
9166;SDS011;4618;48.818;9.088;2022-10-15T08:23:44;0.90;;;0.67;;
9166;SDS011;4618;48.818;9.088;2022-10-15T08:26:10;1.00;;;0.50;;
9166;SDS011;4618;48.818;9.088;2022-10-15T08:28:36;1.53;;;0.70;;
9166;SDS011;4618;48.818;9.088;2022-10-15T08:31:01;1.13;;;0.60;;
9166;SDS011;4618;48.818;9.088;2022-10-15T08:33:28;0.50;;;0.50;;
9166;SDS011;4618;48.818;9.088;2022-10-15T08:35:54;0.53;;;0.50;;
9166;SDS011;4618;48.818;9.088;2022-10-15T08:38:20;1.27;;;0.50;;
9166;SDS011;4618;48.818;9.088;2022-10-15T08:40:46;0.67;;;0.40;;
9166;SDS011;4618;48.818;9.088;2022-10-15T08:43:19;2.33;;;0.80;;
9166;SDS011;4618;48.818;9.088;2022-10-15T08:46:10;1.03;;;0.50;;
9166;SDS011;4618;48.818;9.088;2022-10-15T08:48:41;1.17;;;0.50;;
9166;SDS011;4618;48.818;9.088;2022-10-15T08:51:19;0.30;;;0.30;;
9166;SDS011;4618;48.818;9.088;2022-10-15T08:53:51;1.13;;;0.50;;
9166;SDS011;4618;48.818;9.088;2022-10-15T08:56:27;0.77;;;0.50;;
9166;SDS011;4618;48.818;9.088;2022-10-15T08:58:59;0.40;;;0.30;;
9166;SDS011;4618;48.818;9.088;2022-10-15T09:07:01;0.60;;;0.50;;
9166;SDS011;4618;48.818;9.088;2022-10-15T09:09:43;1.40;;;0.40;;
9166;SDS011;4618;48.818;9.088;2022-10-15T09:14:42;0.40;;;0.30;;
9166;SDS011;4618;48.818;9.088;2022-10-15T09:17:15;0.47;;;0.30;;
9166;SDS011;4618;48.818;9.088;2022-10-15T09:19:42;0.63;;;0.20;;
9166;SDS011;4618;48.818;9.088;2022-10-15T09:22:11;0.63;;;0.20;;
9166;SDS011;4618;48.818;9.088;2022-10-15T09:24:41;0.67;;;0.57;;
9166;SDS011;4618;48.818;9.088;2022-10-15T09:27:23;0.40;;;0.33;;
9166;SDS011;4618;48.818;9.088;2022-10-15T09:32:49;1.50;;;0.27;;
9166;SDS011;4618;48.818;9.088;2022-10-15T09:35:38;0.27;;;0.13;;
9166;SDS011;4618;48.818;9.088;2022-10-15T09:43:30;3.00;;;0.30;;
9166;SDS011;4618;48.818;9.088;2022-10-15T09:46:00;0.80;;;0.30;;
9166;SDS011;4618;48.818;9.088;2022-10-15T09:48:27;1.27;;;0.20;;
9166;SDS011;4618;48.818;9.088;2022-10-15T09:51:23;0.63;;;0.50;;
9166;SDS011;4618;48.818;9.088;2022-10-15T09:54:00;0.30;;;0.30;;
9166;SDS011;4618;48.818;9.088;2022-10-15T09:56:36;2.03;;;0.30;;
9166;SDS011;4618;48.818;9.088;2022-10-15T09:59:07;1.90;;;0.40;;
9166;SDS011;4618;48.818;9.088;2022-10-15T10:01:41;0.40;;;0.40;;
9166;SDS011;4618;48.818;9.088;2022-10-15T10:04:23;0.70;;;0.10;;
9166;SDS011;4618;48.818;9.088;2022-10-15T10:07:04;0.90;;;0.20;;
9166;SDS011;4618;48.818;9.088;2022-10-15T10:12:18;2.10;;;0.30;;
9166;SDS011;4618;48.818;9.088;2022-10-15T10:14:59;0.93;;;0.40;;
9166;SDS011;4618;48.818;9.088;2022-10-15T10:17:33;1.90;;;0.30;;
9166;SDS011;4618;48.818;9.088;2022-10-15T10:22:31;1.50;;;0.30;;
9166;SDS011;4618;48.818;9.088;2022-10-15T10:27:53;0.30;;;0.30;;
9166;SDS011;4618;48.818;9.088;2022-10-15T10:30:19;0.50;;;0.20;;
9166;SDS011;4618;48.818;9.088;2022-10-15T10:32:45;1.30;;;0.50;;
9166;SDS011;4618;48.818;9.088;2022-10-15T10:35:15;0.60;;;0.60;;
9166;SDS011;4618;48.818;9.088;2022-10-15T10:37:45;1.33;;;0.93;;
9166;SDS011;4618;48.818;9.088;2022-10-15T10:40:26;1.07;;;0.60;;
9166;SDS011;4618;48.818;9.088;2022-10-15T10:45:34;0.73;;;0.37;;
9166;SDS011;4618;48.818;9.088;2022-10-15T10:48:21;0.40;;;0.30;;
9166;SDS011;4618;48.818;9.088;2022-10-15T10:50:48;0.43;;;0.43;;
9166;SDS011;4618;48.818;9.088;2022-10-15T10:53:25;0.50;;;0.50;;
9166;SDS011;4618;48.818;9.088;2022-10-15T10:55:51;1.53;;;0.37;;
9166;SDS011;4618;48.818;9.088;2022-10-15T10:58:20;0.83;;;0.40;;
9166;SDS011;4618;48.818;9.088;2022-10-15T11:00:49;0.40;;;0.40;;
9166;SDS011;4618;48.818;9.088;2022-10-15T11:08:57;1.50;;;0.40;;
9166;SDS011;4618;48.818;9.088;2022-10-15T11:16:52;0.37;;;0.30;;
9166;SDS011;4618;48.818;9.088;2022-10-15T11:33:28;1.23;;;0.40;;
9166;SDS011;4618;48.818;9.088;2022-10-15T11:36:22;2.07;;;0.90;;
9166;SDS011;4618;48.818;9.088;2022-10-15T11:39:24;1.73;;;0.40;;
9166;SDS011;4618;48.818;9.088;2022-10-15T11:55:31;0.83;;;0.47;;
9166;SDS011;4618;48.818;9.088;2022-10-15T11:58:05;1.00;;;0.40;;
9166;SDS011;4618;48.818;9.088;2022-10-15T12:00:38;0.40;;;0.30;;
9166;SDS011;4618;48.818;9.088;2022-10-15T12:03:20;0.93;;;0.53;;
9166;SDS011;4618;48.818;9.088;2022-10-15T12:05:49;2.00;;;0.40;;
9166;SDS011;4618;48.818;9.088;2022-10-15T12:08:37;1.43;;;0.40;;
9166;SDS011;4618;48.818;9.088;2022-10-15T12:11:19;0.40;;;0.20;;
9166;SDS011;4618;48.818;9.088;2022-10-15T12:14:20;1.27;;;0.40;;
9166;SDS011;4618;48.818;9.088;2022-10-15T12:19:54;2.63;;;0.50;;
9166;SDS011;4618;48.818;9.088;2022-10-15T12:28:01;1.10;;;0.30;;
9166;SDS011;4618;48.818;9.088;2022-10-15T12:36:00;1.13;;;0.30;;
9166;SDS011;4618;48.818;9.088;2022-10-15T12:38:37;0.77;;;0.40;;
9166;SDS011;4618;48.818;9.088;2022-10-15T12:41:06;0.40;;;0.30;;
9166;SDS011;4618;48.818;9.088;2022-10-15T12:43:43;4.50;;;0.67;;
9166;SDS011;4618;48.818;9.088;2022-10-15T12:46:15;0.50;;;0.37;;
9166;SDS011;4618;48.818;9.088;2022-10-15T12:48:41;0.67;;;0.40;;
9166;SDS011;4618;48.818;9.088;2022-10-15T12:53:40;0.60;;;0.40;;
9166;SDS011;4618;48.818;9.088;2022-10-15T13:08:52;2.50;;;0.60;;
9166;SDS011;4618;48.818;9.088;2022-10-15T13:11:40;2.37;;;0.33;;
9166;SDS011;4618;48.818;9.088;2022-10-15T13:14:31;0.47;;;0.30;;
9166;SDS011;4618;48.818;9.088;2022-10-15T13:16:58;0.90;;;0.40;;
9166;SDS011;4618;48.818;9.088;2022-10-15T13:19:37;3.50;;;0.50;;
9166;SDS011;4618;48.818;9.088;2022-10-15T13:22:05;0.50;;;0.50;;
9166;SDS011;4618;48.818;9.088;2022-10-15T13:24:44;0.50;;;0.50;;
9166;SDS011;4618;48.818;9.088;2022-10-15T13:27:13;1.97;;;1.23;;
9166;SDS011;4618;48.818;9.088;2022-10-15T13:29:57;1.13;;;0.70;;
9166;SDS011;4618;48.818;9.088;2022-10-15T13:32:27;0.87;;;0.60;;
9166;SDS011;4618;48.818;9.088;2022-10-15T13:34:56;3.03;;;0.50;;
9166;SDS011;4618;48.818;9.088;2022-10-15T13:37:28;3.43;;;0.90;;
9166;SDS011;4618;48.818;9.088;2022-10-15T13:39:56;1.33;;;0.93;;
9166;SDS011;4618;48.818;9.088;2022-10-15T13:42:23;2.30;;;1.00;;
9166;SDS011;4618;48.818;9.088;2022-10-15T13:47:44;2.33;;;1.00;;
9166;SDS011;4618;48.818;9.088;2022-10-15T13:50:15;1.60;;;0.80;;
9166;SDS011;4618;48.818;9.088;2022-10-15T13:55:27;2.27;;;0.70;;
9166;SDS011;4618;48.818;9.088;2022-10-15T14:01:17;2.80;;;0.97;;
9166;SDS011;4618;48.818;9.088;2022-10-15T14:03:48;0.83;;;0.70;;
9166;SDS011;4618;48.818;9.088;2022-10-15T14:09:02;3.23;;;0.83;;
9166;SDS011;4618;48.818;9.088;2022-10-15T14:11:39;1.20;;;0.70;;
9166;SDS011;4618;48.818;9.088;2022-10-15T14:14:04;2.07;;;0.80;;
9166;SDS011;4618;48.818;9.088;2022-10-15T14:17:04;3.03;;;0.70;;
9166;SDS011;4618;48.818;9.088;2022-10-15T14:19:32;2.10;;;0.80;;
9166;SDS011;4618;48.818;9.088;2022-10-15T14:22:01;1.90;;;0.87;;
9166;SDS011;4618;48.818;9.088;2022-10-15T14:24:35;3.83;;;0.90;;
9166;SDS011;4618;48.818;9.088;2022-10-15T14:27:24;2.43;;;0.83;;
9166;SDS011;4618;48.818;9.088;2022-10-15T14:29:53;0.60;;;0.53;;
9166;SDS011;4618;48.818;9.088;2022-10-15T14:38:01;1.57;;;0.60;;
9166;SDS011;4618;48.818;9.088;2022-10-15T14:40:27;1.67;;;0.60;;
9166;SDS011;4618;48.818;9.088;2022-10-15T14:46:14;1.03;;;0.60;;
9166;SDS011;4618;48.818;9.088;2022-10-15T14:48:23;0.97;;;0.60;;
9166;SDS011;4618;48.818;9.088;2022-10-15T14:50:50;0.80;;;0.60;;
9166;SDS011;4618;48.818;9.088;2022-10-15T14:53:23;0.60;;;0.60;;
9166;SDS011;4618;48.818;9.088;2022-10-15T14:55:52;1.57;;;0.60;;
9166;SDS011;4618;48.818;9.088;2022-10-15T14:58:21;3.20;;;0.70;;
9166;SDS011;4618;48.818;9.088;2022-10-15T15:00:59;2.43;;;0.80;;
9166;SDS011;4618;48.818;9.088;2022-10-15T15:03:34;1.93;;;0.80;;
9166;SDS011;4618;48.818;9.088;2022-10-15T15:06:03;0.80;;;0.80;;
9166;SDS011;4618;48.818;9.088;2022-10-15T15:08:29;1.53;;;0.90;;
9166;SDS011;4618;48.818;9.088;2022-10-15T15:10:55;1.27;;;1.07;;
9166;SDS011;4618;48.818;9.088;2022-10-15T15:13:24;2.27;;;0.87;;
9166;SDS011;4618;48.818;9.088;2022-10-15T15:15:52;3.33;;;0.83;;
9166;SDS011;4618;48.818;9.088;2022-10-15T15:18:17;0.90;;;0.60;;
9166;SDS011;4618;48.818;9.088;2022-10-15T15:20:44;2.03;;;0.50;;
9166;SDS011;4618;48.818;9.088;2022-10-15T15:23:19;1.17;;;0.50;;
9166;SDS011;4618;48.818;9.088;2022-10-15T15:25:46;1.90;;;0.73;;
9166;SDS011;4618;48.818;9.088;2022-10-15T15:28:13;1.23;;;0.73;;
9166;SDS011;4618;48.818;9.088;2022-10-15T15:30:41;2.07;;;0.50;;
9166;SDS011;4618;48.818;9.088;2022-10-15T15:33:12;0.70;;;0.70;;
9166;SDS011;4618;48.818;9.088;2022-10-15T15:38:08;0.97;;;0.67;;
9166;SDS011;4618;48.818;9.088;2022-10-15T15:40:35;1.00;;;0.40;;
9166;SDS011;4618;48.818;9.088;2022-10-15T15:43:01;2.33;;;0.50;;
9166;SDS011;4618;48.818;9.088;2022-10-15T15:45:27;0.90;;;0.70;;
9166;SDS011;4618;48.818;9.088;2022-10-15T15:47:53;0.40;;;0.40;;
9166;SDS011;4618;48.818;9.088;2022-10-15T15:50:22;2.97;;;0.50;;
9166;SDS011;4618;48.818;9.088;2022-10-15T15:52:48;5.67;;;3.20;;
9166;SDS011;4618;48.818;9.088;2022-10-15T15:55:14;0.60;;;0.57;;
9166;SDS011;4618;48.818;9.088;2022-10-15T15:57:40;3.87;;;1.37;;
9166;SDS011;4618;48.818;9.088;2022-10-15T16:00:07;3.80;;;1.03;;
9166;SDS011;4618;48.818;9.088;2022-10-15T16:02:34;0.70;;;0.50;;
9166;SDS011;4618;48.818;9.088;2022-10-15T16:05:00;1.23;;;0.40;;
9166;SDS011;4618;48.818;9.088;2022-10-15T16:07:27;1.33;;;0.40;;
9166;SDS011;4618;48.818;9.088;2022-10-15T16:09:53;1.20;;;0.40;;
9166;SDS011;4618;48.818;9.088;2022-10-15T16:12:18;0.70;;;0.50;;
9166;SDS011;4618;48.818;9.088;2022-10-15T16:14:44;0.50;;;0.50;;
9166;SDS011;4618;48.818;9.088;2022-10-15T16:17:10;1.07;;;0.53;;
9166;SDS011;4618;48.818;9.088;2022-10-15T16:19:35;1.07;;;0.40;;
9166;SDS011;4618;48.818;9.088;2022-10-15T16:22:01;1.13;;;0.40;;
9166;SDS011;4618;48.818;9.088;2022-10-15T16:24:26;0.50;;;0.50;;
9166;SDS011;4618;48.818;9.088;2022-10-15T16:26:52;1.80;;;0.80;;
9166;SDS011;4618;48.818;9.088;2022-10-15T16:29:17;2.87;;;0.63;;
9166;SDS011;4618;48.818;9.088;2022-10-15T16:31:43;2.23;;;0.50;;
9166;SDS011;4618;48.818;9.088;2022-10-15T16:34:08;1.40;;;0.40;;
9166;SDS011;4618;48.818;9.088;2022-10-15T16:36:34;2.47;;;0.50;;
9166;SDS011;4618;48.818;9.088;2022-10-15T16:39:00;0.43;;;0.30;;
9166;SDS011;4618;48.818;9.088;2022-10-15T16:41:26;0.50;;;0.50;;
9166;SDS011;4618;48.818;9.088;2022-10-15T16:43:52;3.53;;;0.63;;
9166;SDS011;4618;48.818;9.088;2022-10-15T16:46:17;0.97;;;0.60;;
9166;SDS011;4618;48.818;9.088;2022-10-15T16:48:44;1.87;;;0.50;;
9166;SDS011;4618;48.818;9.088;2022-10-15T16:51:14;1.17;;;0.50;;
9166;SDS011;4618;48.818;9.088;2022-10-15T16:53:40;1.50;;;0.60;;
9166;SDS011;4618;48.818;9.088;2022-10-15T16:56:08;0.40;;;0.40;;
9166;SDS011;4618;48.818;9.088;2022-10-15T16:58:37;1.90;;;0.50;;
9166;SDS011;4618;48.818;9.088;2022-10-15T17:01:04;1.03;;;0.60;;
9166;SDS011;4618;48.818;9.088;2022-10-15T17:03:32;0.50;;;0.50;;
9166;SDS011;4618;48.818;9.088;2022-10-15T17:05:59;1.27;;;0.67;;
9166;SDS011;4618;48.818;9.088;2022-10-15T17:08:27;0.60;;;0.50;;
9166;SDS011;4618;48.818;9.088;2022-10-15T17:10:58;0.83;;;0.40;;
9166;SDS011;4618;48.818;9.088;2022-10-15T17:13:24;1.30;;;0.50;;
9166;SDS011;4618;48.818;9.088;2022-10-15T17:15:49;1.03;;;0.50;;
9166;SDS011;4618;48.818;9.088;2022-10-15T17:18:15;0.60;;;0.60;;
9166;SDS011;4618;48.818;9.088;2022-10-15T17:20:47;0.50;;;0.50;;
9166;SDS011;4618;48.818;9.088;2022-10-15T17:23:14;1.97;;;0.60;;
9166;SDS011;4618;48.818;9.088;2022-10-15T17:25:40;0.43;;;0.43;;
9166;SDS011;4618;48.818;9.088;2022-10-15T17:28:06;1.33;;;0.80;;
9166;SDS011;4618;48.818;9.088;2022-10-15T17:30:36;1.73;;;0.80;;
9166;SDS011;4618;48.818;9.088;2022-10-15T17:33:03;1.93;;;0.80;;
9166;SDS011;4618;48.818;9.088;2022-10-15T17:35:29;2.83;;;0.83;;
9166;SDS011;4618;48.818;9.088;2022-10-15T17:37:56;1.90;;;0.87;;
9166;SDS011;4618;48.818;9.088;2022-10-15T17:40:23;0.77;;;0.70;;
9166;SDS011;4618;48.818;9.088;2022-10-15T17:42:49;2.50;;;0.53;;
9166;SDS011;4618;48.818;9.088;2022-10-15T17:45:15;1.60;;;0.70;;
9166;SDS011;4618;48.818;9.088;2022-10-15T17:47:40;1.33;;;0.50;;
9166;SDS011;4618;48.818;9.088;2022-10-15T17:50:06;2.70;;;0.87;;
9166;SDS011;4618;48.818;9.088;2022-10-15T17:52:32;2.20;;;0.80;;
9166;SDS011;4618;48.818;9.088;2022-10-15T17:54:57;2.97;;;1.60;;
9166;SDS011;4618;48.818;9.088;2022-10-15T17:57:23;2.77;;;1.20;;